createdAt,value
2023-04-14T00:00:55.214Z,52103.69
2023-04-14T00:05:59.868Z,52113.69
2023-04-14T00:11:04.460Z,52081.69
2023-04-14T00:16:12.013Z,52085.69
2023-04-14T00:21:16.620Z,52067.69
2023-04-14T00:26:21.296Z,52069.69
2023-04-14T00:31:27.648Z,52093.69
2023-04-14T00:36:32.374Z,52091.69
2023-04-14T00:41:38.109Z,52115.69
2023-04-14T00:46:44.069Z,52101.69
2023-04-14T00:51:49.413Z,52087.69
2023-04-14T00:56:57.598Z,52073.69
2023-04-14T01:02:03.760Z,52071.69
2023-04-14T01:07:08.547Z,52083.69
2023-04-14T01:12:28.047Z,52047.69
2023-04-14T01:17:41.180Z,52069.69
2023-04-14T01:22:50.535Z,52039.69
2023-04-14T01:28:15.120Z,52059.69
2023-04-14T01:33:26.514Z,52077.69
2023-04-14T01:38:36.251Z,52063.69
2023-04-14T01:43:43.198Z,52057.69
2023-04-14T01:48:50.561Z,52075.69
2023-04-14T01:53:56.648Z,52081.69
2023-04-14T01:59:03.588Z,52097.69
2023-04-14T02:04:11.214Z,52123.69
2023-04-14T02:09:17.911Z,52109.69
2023-04-14T02:14:23.924Z,52113.69
2023-04-14T02:19:31.361Z,52089.69
2023-04-14T02:24:35.752Z,52075.69
2023-04-14T02:29:44.084Z,52089.69
2023-04-14T02:35:03.615Z,52105.69
2023-04-14T02:40:14.440Z,52089.69
2023-04-14T02:45:24.264Z,52065.69
2023-04-14T02:50:31.730Z,52079.69
2023-04-14T02:55:51.606Z,52069.69
2023-04-14T03:00:59.249Z,52067.69
2023-04-14T03:06:06.513Z,52057.69
2023-04-14T03:11:13.284Z,52037.69
2023-04-14T03:16:20.685Z,52077.69
2023-04-14T03:21:28.514Z,52051.69
2023-04-14T03:26:34.814Z,52091.69
2023-04-14T03:31:40.403Z,52045.69
2023-04-14T03:36:48.911Z,52075.69
2023-04-14T03:41:54.888Z,52069.69
2023-04-14T03:47:02.350Z,52073.69
2023-04-14T03:52:13.308Z,52057.69
2023-04-14T03:57:18.931Z,52083.69
2023-04-14T04:02:25.975Z,52033.69
2023-04-14T04:07:33.865Z,52017.69
2023-04-14T04:12:40.281Z,52037.69
2023-04-14T04:17:48.313Z,52057.69
2023-04-14T04:23:01.453Z,52027.69
2023-04-14T04:28:06.804Z,52061.69
2023-04-14T04:33:12.412Z,52085.69
2023-04-14T04:38:18.642Z,52107.69
2023-04-14T04:43:23.802Z,52041.69
2023-04-14T04:48:28.702Z,52079.69
2023-04-14T04:53:34.738Z,52047.69
2023-04-14T04:58:38.878Z,52041.69
2023-04-14T05:03:43.038Z,52067.69
2023-04-14T05:08:48.791Z,52049.69
2023-04-14T05:14:01.066Z,52049.69
2023-04-14T05:19:08.701Z,52073.69
2023-04-14T05:24:14.487Z,52093.69
2023-04-14T05:29:18.810Z,52113.69
2023-04-14T05:34:23.107Z,52065.69
2023-04-14T05:39:28.673Z,52105.69
2023-04-14T05:44:32.726Z,52049.69
2023-04-14T05:49:36.871Z,52093.69
2023-04-14T05:54:43.360Z,52075.69
2023-04-14T05:59:47.623Z,52073.69
2023-04-14T06:04:52.390Z,52069.69
2023-04-14T06:09:58.060Z,52099.69
2023-04-14T06:15:02.243Z,52093.69
2023-04-14T06:20:07.372Z,52089.69
2023-04-14T06:25:13.314Z,52069.69
2023-04-14T06:30:17.418Z,52089.69
2023-04-14T06:35:32.372Z,52105.69
2023-04-14T06:40:39.014Z,52127.69
2023-04-14T06:45:43.207Z,52057.69
2023-04-14T06:50:55.397Z,52017.69
2023-04-14T06:56:01.032Z,51927.72
2023-04-14T07:01:05.926Z,51951.69
2023-04-14T07:06:12.123Z,51953.69
2023-04-14T07:11:18.089Z,51857.72
2023-04-14T07:16:22.344Z,51781.72
2023-04-14T07:21:26.577Z,51705.72
2023-04-14T07:26:32.394Z,51595.72
2023-04-14T07:31:38.243Z,51337.78
2023-04-14T07:36:42.605Z,51231.78
2023-04-14T07:41:48.176Z,51239.78
2023-04-14T07:46:52.264Z,51291.78
2023-04-14T07:51:57.084Z,51197.78
2023-04-14T07:57:02.641Z,51177.81
2023-04-14T08:02:06.945Z,51195.78
2023-04-14T08:07:11.846Z,51195.78
2023-04-14T08:12:17.761Z,51305.78
2023-04-14T08:17:22.157Z,51249.78
2023-04-14T08:22:26.714Z,51203.78
2023-04-14T08:27:32.863Z,51221.78
2023-04-14T08:32:37.645Z,51249.78
2023-04-14T08:37:42.008Z,51313.78
2023-04-14T08:42:47.703Z,51249.78
2023-04-14T08:47:54.830Z,51197.78
2023-04-14T08:53:02.870Z,51195.78
2023-04-14T08:58:10.807Z,51209.78
2023-04-14T09:03:15.764Z,51199.78
2023-04-14T09:08:21.757Z,51257.78
2023-04-14T09:13:28.862Z,51313.78
2023-04-14T09:18:34.866Z,51361.75
2023-04-14T09:23:41.980Z,51385.75
2023-04-14T09:28:47.656Z,51721.72
2023-04-14T09:33:52.558Z,51759.72
2023-04-14T09:38:57.466Z,51701.72
2023-04-14T09:44:10.234Z,51419.75
2023-04-14T09:49:14.753Z,51599.72
2023-04-14T09:54:25.336Z,51621.72
2023-04-14T09:59:35.281Z,51397.75
2023-04-14T10:04:39.663Z,51385.75
2023-04-14T10:09:45.866Z,51311.78
2023-04-14T10:14:51.816Z,51293.78
2023-04-14T10:19:56.035Z,51185.81
2023-04-14T10:25:00.796Z,51239.78
2023-04-14T10:30:10.334Z,51245.78
2023-04-14T10:35:17.813Z,51277.78
2023-04-14T10:40:23.334Z,51643.72
2023-04-14T10:45:29.146Z,51657.72
2023-04-14T10:50:49.136Z,51139.81
2023-04-14T10:55:56.048Z,51217.78
2023-04-14T11:01:01.920Z,51141.81
2023-04-14T11:06:06.771Z,51049.84
2023-04-14T11:11:10.999Z,51047.84
2023-04-14T11:16:30.430Z,51107.81
2023-04-14T11:21:34.676Z,51105.81
2023-04-14T11:26:40.113Z,51109.81
2023-04-14T11:31:45.768Z,51043.84
2023-04-14T11:36:50.773Z,51083.81
2023-04-14T11:41:56.266Z,51217.78
2023-04-14T11:47:02.150Z,51269.78
2023-04-14T11:52:08.235Z,51355.75
2023-04-14T11:57:12.741Z,51301.78
2023-04-14T12:02:19.934Z,51281.78
2023-04-14T12:07:24.500Z,51233.78
2023-04-14T12:12:29.200Z,51205.78
2023-04-14T12:17:35.561Z,51139.81
2023-04-14T12:22:39.950Z,51213.78
2023-04-14T12:27:44.403Z,51249.78
2023-04-14T12:32:50.613Z,51337.78
2023-04-14T12:37:54.813Z,51373.75
2023-04-14T12:42:58.974Z,51419.75
2023-04-14T12:48:04.573Z,51309.78
2023-04-14T12:53:24.651Z,51369.75
2023-04-14T12:58:31.088Z,51221.78
2023-04-14T13:03:50.227Z,51397.75
2023-04-14T13:08:55.286Z,51393.75
2023-04-14T13:13:59.646Z,51357.75
2023-04-14T13:19:05.721Z,51459.75
2023-04-14T13:24:09.811Z,51469.75
2023-04-14T13:29:14.492Z,51389.75
2023-04-14T13:34:20.820Z,51223.78
2023-04-14T13:39:24.963Z,51125.81
2023-04-14T13:44:29.233Z,51057.84
2023-04-14T13:49:35.055Z,50979.84
2023-04-14T13:54:39.367Z,50977.84
2023-04-14T13:59:43.763Z,50985.84
2023-04-14T14:04:49.234Z,50975.84
2023-04-14T14:09:53.746Z,50989.84
2023-04-14T14:14:58.565Z,50987.84
2023-04-14T14:20:04.489Z,51017.84
2023-04-14T14:25:19.412Z,50997.84
2023-04-14T14:30:25.857Z,51001.84
2023-04-14T14:35:31.868Z,51001.84
2023-04-14T14:40:36.277Z,51085.81
2023-04-14T14:45:40.512Z,51013.84
2023-04-14T14:50:46.675Z,51003.84
2023-04-14T14:55:51.019Z,50973.84
2023-04-14T15:00:55.383Z,50919.88
2023-04-14T15:06:00.951Z,50923.88
2023-04-14T15:11:05.517Z,50889.88
2023-04-14T15:16:09.984Z,50861.88
2023-04-14T15:21:15.720Z,50881.88
2023-04-14T15:26:20.153Z,50889.88
2023-04-14T15:31:24.539Z,50875.88
2023-04-14T15:36:30.406Z,50859.88
2023-04-14T15:41:36.289Z,50787.91
2023-04-14T15:46:40.659Z,50815.91
2023-04-14T15:51:46.144Z,50817.91
2023-04-14T15:56:52.734Z,50789.91
2023-04-14T16:01:58.156Z,50785.91
2023-04-14T16:07:03.955Z,50793.91
2023-04-14T16:12:08.236Z,50765.91
2023-04-14T16:17:12.769Z,50745.91
2023-04-14T16:22:18.630Z,50717.94
2023-04-14T16:27:23.544Z,50737.94
2023-04-14T16:32:29.951Z,50689.94
2023-04-14T16:37:35.797Z,50703.94
2023-04-14T16:42:40.236Z,50665.94
2023-04-14T16:47:44.868Z,50573.97
2023-04-14T16:52:50.639Z,50575.97
2023-04-14T16:57:55.045Z,50577.97
2023-04-14T17:02:59.554Z,50546.00
2023-04-14T17:08:05.619Z,50542.00
2023-04-14T17:13:10.265Z,50569.97
2023-04-14T17:18:15.078Z,50597.97
2023-04-14T17:23:21.647Z,50697.94
2023-04-14T17:28:26.953Z,50873.88
2023-04-14T17:33:31.262Z,50969.84
2023-04-14T17:38:38.833Z,50997.84
2023-04-14T17:43:43.176Z,51013.84
2023-04-14T17:48:47.365Z,50977.84
2023-04-14T17:53:53.023Z,50997.84
2023-04-14T17:58:57.735Z,51001.84
2023-04-14T18:04:04.422Z,50995.84
2023-04-14T18:09:11.428Z,51023.84
2023-04-14T18:14:16.159Z,51321.78
2023-04-14T18:19:20.921Z,51357.75
2023-04-14T18:29:34.786Z,51381.75
2023-04-14T18:34:38.996Z,51327.78
2023-04-14T18:39:45.076Z,51325.78
2023-04-14T18:44:49.736Z,51309.78
2023-04-14T18:49:54.239Z,51281.78
2023-04-14T18:54:59.798Z,51277.78
2023-04-14T19:00:04.896Z,51277.78
2023-04-14T19:05:10.064Z,51233.78
2023-04-14T19:10:16.616Z,51251.78
2023-04-14T19:15:21.117Z,51239.78
2023-04-14T19:20:26.875Z,51231.78
2023-04-14T19:25:32.458Z,51213.78
2023-04-14T19:30:38.126Z,51297.78
2023-04-14T19:35:44.374Z,51277.78
2023-04-14T19:40:50.657Z,51291.78
2023-04-14T19:45:57.579Z,51279.78
2023-04-14T19:51:04.238Z,51277.78
2023-04-14T19:56:09.964Z,51289.78
2023-04-14T20:01:14.368Z,51303.78
2023-04-14T20:06:18.986Z,51339.78
2023-04-14T20:11:27.940Z,51341.78
2023-04-14T20:16:32.898Z,51383.75
2023-04-14T20:21:37.117Z,51369.75
2023-04-14T20:26:43.848Z,51409.75
2023-04-14T20:31:48.727Z,51409.75
2023-04-14T20:36:55.079Z,51479.75
2023-04-14T20:42:00.955Z,51453.75
2023-04-14T20:47:05.438Z,51497.75
2023-04-14T20:52:10.129Z,51573.72
2023-04-14T20:57:15.907Z,51563.72
2023-04-14T21:02:20.260Z,51565.72
2023-04-14T21:07:24.693Z,51565.72
2023-04-14T21:12:36.030Z,51587.72
2023-04-14T21:17:40.461Z,51603.72
2023-04-14T21:22:44.580Z,51589.72
2023-04-14T21:27:50.199Z,51629.72
2023-04-14T21:32:54.393Z,51579.72
2023-04-14T21:37:58.872Z,51647.72
2023-04-14T21:43:04.390Z,51621.72
2023-04-14T21:48:08.624Z,51641.72
2023-04-14T21:53:13.308Z,51629.72
2023-04-14T21:58:19.238Z,51641.72
2023-04-14T22:03:23.650Z,51609.72
2023-04-14T22:08:28.155Z,51635.72
2023-04-14T22:13:33.805Z,51651.72
2023-04-14T22:18:40.148Z,51645.72
2023-04-14T22:23:45.047Z,51663.72
2023-04-14T22:28:51.264Z,51693.72
2023-04-14T22:33:55.413Z,51675.72
2023-04-14T22:38:59.883Z,51623.72
2023-04-14T22:44:06.953Z,51643.72
2023-04-14T22:49:11.134Z,51641.72
2023-04-14T22:54:15.360Z,51663.72
2023-04-14T22:59:20.879Z,51639.72
2023-04-14T23:04:26.343Z,51649.72
2023-04-14T23:09:31.361Z,51619.72
2023-04-14T23:14:37.011Z,51651.72
2023-04-14T23:19:41.310Z,51645.72
2023-04-14T23:24:46.032Z,51671.72
2023-04-14T23:29:51.749Z,51717.72
2023-04-14T23:34:55.868Z,51689.72
2023-04-14T23:40:00.415Z,51715.72
2023-04-14T23:45:07.253Z,51747.72
2023-04-14T23:50:12.225Z,51787.72
2023-04-14T23:55:16.627Z,51787.72
